createdAt,value
2022-12-18T00:02:15.885Z,5.16
2022-12-18T00:04:42.655Z,5.19
2022-12-18T00:07:09.514Z,5.24
2022-12-18T00:09:39.573Z,5.30
2022-12-18T00:14:44.581Z,5.39
2022-12-18T00:17:11.305Z,5.42
2022-12-18T00:19:37.993Z,5.42
2022-12-18T00:22:04.753Z,5.43
2022-12-18T00:24:31.613Z,5.48
2022-12-18T00:26:58.334Z,5.54
2022-12-18T00:29:25.122Z,5.61
2022-12-18T00:31:51.907Z,5.65
2022-12-18T00:34:18.948Z,5.70
2022-12-18T00:36:48.969Z,5.76
2022-12-18T00:39:15.777Z,5.81
2022-12-18T00:42:03.238Z,5.85
2022-12-18T00:44:31.411Z,5.86
2022-12-18T00:46:58.137Z,5.85
2022-12-18T00:49:24.962Z,5.85
2022-12-18T00:51:51.705Z,5.88
2022-12-18T00:54:21.328Z,5.92
2022-12-18T00:56:49.867Z,5.94
2022-12-18T00:59:19.109Z,5.98
2022-12-18T01:01:46.530Z,5.98
2022-12-18T01:04:13.930Z,5.98
2022-12-18T01:06:41.297Z,5.99
2022-12-18T01:09:08.131Z,5.99
2022-12-18T01:11:37.356Z,5.93
2022-12-18T01:14:05.109Z,5.88
2022-12-18T01:16:32.209Z,5.87
2022-12-18T01:18:59.111Z,5.87
2022-12-18T01:21:28.154Z,5.86
2022-12-18T01:23:56.545Z,5.86
2022-12-18T01:26:25.684Z,5.85
2022-12-18T01:28:52.903Z,5.82
2022-12-18T01:31:23.564Z,5.82
2022-12-18T01:33:51.601Z,5.82
2022-12-18T01:36:21.929Z,5.82
2022-12-18T01:38:49.261Z,5.79
2022-12-18T01:41:18.665Z,5.75
2022-12-18T01:43:56.090Z,5.73
2022-12-18T01:46:24.767Z,5.74
2022-12-18T01:49:02.442Z,5.71
2022-12-18T01:51:31.882Z,5.66
2022-12-18T01:54:00.603Z,5.66
2022-12-18T01:56:27.824Z,5.69
2022-12-18T01:59:00.916Z,5.73
2022-12-18T02:01:29.992Z,5.79
2022-12-18T02:03:57.540Z,5.87
2022-12-18T02:06:28.701Z,5.93
2022-12-18T02:09:25.874Z,5.97
2022-12-18T02:12:22.310Z,5.99
2022-12-18T02:15:39.831Z,6.03
2022-12-18T02:18:26.630Z,6.04
2022-12-18T02:21:28.354Z,6.04
2022-12-18T02:24:19.211Z,6.05
2022-12-18T02:26:52.672Z,6.07
2022-12-18T02:29:29.922Z,6.07
2022-12-18T02:32:03.348Z,6.10
2022-12-18T02:34:33.642Z,6.12
2022-12-18T02:37:03.140Z,6.15
2022-12-18T02:39:31.978Z,6.18
2022-12-18T02:42:08.698Z,6.22
2022-12-18T02:44:43.284Z,6.23
2022-12-18T02:47:13.653Z,6.26
2022-12-18T02:49:44.225Z,6.29
2022-12-18T02:52:40.072Z,6.31
2022-12-18T02:55:07.082Z,6.32
2022-12-18T02:57:36.866Z,6.33
2022-12-18T03:00:19.609Z,6.37
2022-12-18T03:02:56.781Z,6.40
2022-12-18T03:05:39.629Z,6.42
2022-12-18T03:08:13.430Z,6.43
2022-12-18T03:10:51.959Z,6.45
2022-12-18T03:13:29.616Z,6.47
2022-12-18T03:15:59.462Z,6.49
2022-12-18T03:18:31.585Z,6.48
2022-12-18T03:21:04.136Z,6.46
2022-12-18T03:23:40.691Z,6.44
2022-12-18T03:26:12.690Z,6.40
2022-12-18T03:28:47.019Z,6.40
2022-12-18T03:31:15.296Z,6.42
2022-12-18T03:33:52.352Z,6.40
2022-12-18T03:36:19.545Z,6.36
2022-12-18T03:38:46.370Z,6.37
2022-12-18T03:41:36.643Z,6.39
2022-12-18T03:44:41.291Z,6.39
2022-12-18T03:47:11.300Z,6.34
2022-12-18T03:49:54.239Z,6.31
2022-12-18T03:52:37.335Z,6.29
2022-12-18T03:55:08.173Z,6.29
2022-12-18T03:57:35.801Z,6.29
2022-12-18T04:00:09.446Z,6.27
2022-12-18T04:02:55.080Z,6.25
2022-12-18T04:05:28.285Z,6.23
2022-12-18T04:07:57.674Z,6.21
2022-12-18T04:10:24.726Z,6.18
2022-12-18T04:12:51.853Z,6.15
2022-12-18T04:15:19.306Z,6.13
2022-12-18T04:17:50.470Z,6.15
2022-12-18T04:20:19.845Z,6.17
2022-12-18T04:22:46.765Z,6.21
2022-12-18T04:25:14.275Z,6.25
2022-12-18T04:27:52.332Z,6.26
2022-12-18T04:30:19.057Z,6.25
2022-12-18T04:32:51.912Z,6.27
2022-12-18T04:35:19.701Z,6.24
2022-12-18T04:37:47.436Z,6.21
2022-12-18T04:40:15.565Z,6.21
2022-12-18T04:42:44.423Z,6.22
2022-12-18T04:45:11.391Z,6.21
2022-12-18T04:47:38.150Z,6.20
2022-12-18T04:50:05.472Z,6.22
2022-12-18T04:52:32.171Z,6.22
2022-12-18T04:54:58.872Z,6.22
2022-12-18T04:57:25.627Z,6.23
2022-12-18T04:59:52.341Z,6.24
2022-12-18T05:02:20.534Z,6.29
2022-12-18T05:04:47.347Z,6.33
2022-12-18T05:07:14.029Z,6.31
2022-12-18T05:09:40.804Z,6.28
2022-12-18T05:12:08.597Z,6.23
2022-12-18T05:14:35.359Z,6.19
2022-12-18T05:17:02.068Z,6.14
2022-12-18T05:19:28.836Z,6.12
2022-12-18T05:21:55.544Z,6.12
2022-12-18T05:24:22.272Z,6.12
2022-12-18T05:26:49.000Z,6.14
2022-12-18T05:29:15.758Z,6.17
2022-12-18T05:31:43.116Z,6.21
2022-12-18T05:34:10.388Z,6.25
2022-12-18T05:36:38.158Z,6.28
2022-12-18T05:39:04.899Z,6.27
2022-12-18T05:41:33.082Z,6.27
2022-12-18T05:44:00.242Z,6.28
2022-12-18T05:46:27.143Z,6.24
2022-12-18T05:48:53.951Z,6.22
2022-12-18T05:51:22.803Z,6.21
2022-12-18T05:53:49.559Z,6.24
2022-12-18T05:56:19.463Z,6.27
2022-12-18T05:58:47.344Z,6.28
2022-12-18T06:01:18.036Z,6.27
2022-12-18T06:03:45.796Z,6.27
2022-12-18T06:06:25.083Z,6.27
2022-12-18T06:08:52.737Z,6.24
2022-12-18T06:11:25.756Z,6.24
2022-12-18T06:13:58.273Z,6.23
2022-12-18T06:16:27.437Z,6.21
2022-12-18T06:18:56.972Z,6.22
2022-12-18T06:21:23.780Z,6.22
2022-12-18T06:23:50.483Z,6.25
2022-12-18T06:26:17.228Z,6.27
2022-12-18T06:28:43.994Z,6.26
2022-12-18T06:31:11.210Z,6.27
2022-12-18T06:33:39.077Z,6.29
2022-12-18T06:36:09.219Z,6.31
2022-12-18T06:38:38.123Z,6.33
2022-12-18T06:41:10.065Z,6.34
2022-12-18T06:43:37.826Z,6.35
2022-12-18T06:46:06.451Z,6.33
2022-12-18T06:48:34.263Z,6.32
2022-12-18T06:51:01.466Z,6.30
2022-12-18T06:53:28.596Z,6.29
2022-12-18T06:56:09.175Z,6.30
2022-12-18T06:58:36.969Z,6.26
2022-12-18T07:01:05.727Z,6.25
2022-12-18T07:03:32.860Z,6.25
2022-12-18T07:05:59.682Z,6.22
2022-12-18T07:08:26.361Z,6.19
2022-12-18T07:10:56.466Z,6.15
2022-12-18T07:13:24.241Z,6.11
2022-12-18T07:15:50.964Z,6.12
2022-12-18T07:18:17.701Z,6.15
2022-12-18T07:20:45.226Z,6.18
2022-12-18T07:23:12.828Z,6.23
2022-12-18T07:25:40.543Z,6.24
2022-12-18T07:28:07.210Z,6.23
2022-12-18T07:30:34.434Z,6.20
2022-12-18T07:33:01.263Z,6.21
2022-12-18T07:35:27.982Z,6.26
2022-12-18T07:37:54.735Z,6.33
2022-12-18T07:40:21.598Z,6.40
2022-12-18T07:42:48.339Z,6.45
2022-12-18T07:45:15.160Z,6.48
2022-12-18T07:47:42.350Z,6.48
2022-12-18T07:50:09.280Z,6.45
2022-12-18T07:52:36.118Z,6.45
2022-12-18T07:55:03.838Z,6.45
2022-12-18T08:00:17.438Z,6.51
2022-12-18T08:02:44.682Z,6.54
2022-12-18T08:05:11.543Z,6.54
2022-12-18T08:07:38.264Z,6.55
2022-12-18T08:10:05.355Z,6.58
2022-12-18T08:12:33.207Z,6.61
2022-12-18T08:14:59.885Z,6.63
2022-12-18T08:17:26.616Z,6.63
2022-12-18T08:19:53.370Z,6.64
2022-12-18T08:22:20.090Z,6.65
2022-12-18T08:24:46.803Z,6.70
2022-12-18T08:27:29.065Z,6.74
2022-12-18T08:29:57.609Z,6.76
2022-12-18T08:32:25.753Z,6.78
2022-12-18T08:34:52.547Z,6.78
2022-12-18T08:37:19.274Z,6.79
2022-12-18T08:39:46.149Z,6.80
2022-12-18T08:42:31.635Z,6.81
2022-12-18T08:44:58.334Z,6.83
2022-12-18T08:47:25.188Z,6.89
2022-12-18T08:49:51.883Z,6.95
2022-12-18T08:52:18.695Z,6.98
2022-12-18T08:54:45.621Z,7.00
2022-12-18T08:57:12.296Z,7.01
2022-12-18T08:59:38.991Z,7.03
2022-12-18T09:02:05.837Z,7.07
2022-12-18T09:04:32.761Z,7.09
2022-12-18T09:06:59.448Z,7.11
2022-12-18T09:09:26.149Z,7.18
2022-12-18T09:11:52.947Z,7.25
2022-12-18T09:14:19.662Z,7.30
2022-12-18T09:16:46.474Z,7.35
2022-12-18T09:19:13.339Z,7.38
2022-12-18T09:21:43.374Z,7.40
2022-12-18T09:24:14.988Z,7.45
2022-12-18T09:26:41.772Z,7.49
2022-12-18T09:29:10.510Z,7.50
2022-12-18T09:31:39.209Z,7.55
2022-12-18T09:34:06.050Z,7.59
2022-12-18T09:36:32.742Z,7.62
2022-12-18T09:39:03.730Z,7.65
2022-12-18T09:41:48.367Z,7.68
2022-12-18T09:44:23.430Z,7.70
2022-12-18T09:47:19.895Z,7.75
2022-12-18T09:49:56.117Z,7.79
2022-12-18T09:52:46.819Z,7.82
2022-12-18T09:55:37.261Z,7.87
2022-12-18T09:58:10.534Z,7.89
2022-12-18T10:00:37.625Z,7.89
2022-12-18T10:03:13.549Z,7.89
2022-12-18T10:06:17.946Z,7.88
2022-12-18T10:08:59.074Z,7.87
2022-12-18T10:11:44.348Z,7.87
2022-12-18T10:14:24.570Z,7.88
2022-12-18T10:17:00.663Z,7.92
2022-12-18T10:19:50.302Z,7.95
2022-12-18T10:22:35.891Z,8.07
2022-12-18T10:25:19.713Z,8.23
2022-12-18T10:27:46.557Z,8.36
2022-12-18T10:30:20.225Z,8.51
2022-12-18T10:32:46.998Z,8.60
2022-12-18T10:35:24.206Z,8.68
2022-12-18T10:38:07.875Z,8.85
2022-12-18T10:40:49.597Z,9.07
2022-12-18T10:43:21.381Z,9.30
2022-12-18T10:46:21.620Z,9.45
2022-12-18T10:48:51.231Z,9.51
2022-12-18T10:51:27.084Z,9.49
2022-12-18T10:54:06.923Z,9.41
2022-12-18T10:56:38.004Z,9.32
2022-12-18T10:59:07.850Z,9.29
2022-12-18T11:01:56.072Z,9.27
2022-12-18T11:04:32.257Z,9.39
2022-12-18T11:07:04.454Z,9.51
2022-12-18T11:09:33.926Z,9.56
2022-12-18T11:12:04.679Z,9.62
2022-12-18T11:14:46.816Z,9.77
2022-12-18T11:17:26.527Z,9.89
2022-12-18T11:19:56.503Z,9.97
2022-12-18T11:22:29.718Z,10.07
2022-12-18T11:28:35.420Z,10.28
2022-12-18T11:31:32.413Z,10.39
2022-12-18T11:34:34.269Z,10.46
2022-12-18T11:37:04.495Z,10.59
2022-12-18T11:39:41.589Z,10.69
2022-12-18T11:42:42.793Z,10.80
2022-12-18T11:45:35.352Z,10.89
2022-12-18T11:48:13.948Z,10.83
2022-12-18T11:50:58.036Z,10.75
2022-12-18T11:53:27.179Z,10.75
2022-12-18T11:56:02.820Z,10.83
2022-12-18T11:58:57.234Z,10.90
2022-12-18T12:01:50.169Z,10.91
2022-12-18T12:04:25.945Z,10.93
2022-12-18T12:07:11.593Z,10.98
2022-12-18T12:09:47.057Z,11.01
2022-12-18T12:12:22.807Z,10.97
2022-12-18T12:15:14.203Z,10.95
2022-12-18T12:17:54.205Z,10.93
2022-12-18T12:20:48.910Z,10.95
2022-12-18T12:23:33.361Z,11.00
2022-12-18T12:26:12.112Z,10.96
2022-12-18T12:28:45.023Z,10.89
2022-12-18T12:31:47.110Z,10.81
2022-12-18T12:34:23.990Z,10.74
2022-12-18T12:36:53.511Z,10.72
2022-12-18T12:39:28.227Z,10.67
2022-12-18T12:42:14.587Z,10.60
2022-12-18T12:44:51.250Z,10.58
2022-12-18T12:47:33.999Z,10.56
2022-12-18T12:50:07.994Z,10.52
2022-12-18T12:52:41.029Z,10.46
2022-12-18T12:55:17.105Z,10.40
2022-12-18T12:58:37.222Z,10.36
2022-12-18T13:01:42.279Z,10.32
2022-12-18T13:04:34.564Z,10.29
2022-12-18T13:07:27.129Z,10.27
2022-12-18T13:10:22.408Z,10.25
2022-12-18T13:13:11.044Z,10.19
2022-12-18T13:15:46.796Z,10.14
2022-12-18T13:18:19.531Z,10.12
2022-12-18T13:21:01.556Z,10.13
2022-12-18T13:23:37.518Z,10.11
2022-12-18T13:26:07.376Z,10.06
2022-12-18T13:28:34.338Z,10.00
2022-12-18T13:31:02.767Z,9.96
2022-12-18T13:33:29.898Z,9.96
2022-12-18T13:36:34.775Z,9.95
2022-12-18T13:39:28.659Z,9.92
2022-12-18T13:42:05.409Z,9.90
2022-12-18T13:47:39.069Z,9.85
2022-12-18T13:50:28.687Z,9.83
2022-12-18T13:52:59.480Z,9.80
2022-12-18T13:55:26.546Z,9.79
2022-12-18T13:58:05.741Z,9.77
2022-12-18T14:00:32.804Z,9.73
2022-12-18T14:03:00.833Z,9.68
2022-12-18T14:05:38.777Z,9.63
2022-12-18T14:08:12.470Z,9.60
2022-12-18T14:10:49.747Z,9.56
2022-12-18T14:13:27.535Z,9.49
2022-12-18T14:15:54.964Z,9.44
2022-12-18T14:18:26.478Z,9.39
2022-12-18T14:20:57.778Z,9.33
2022-12-18T14:23:36.576Z,9.27
2022-12-18T14:26:24.586Z,9.20
2022-12-18T14:28:51.928Z,9.12
2022-12-18T14:31:21.265Z,9.05
2022-12-18T14:33:48.714Z,8.98
2022-12-18T14:36:21.950Z,8.91
2022-12-18T14:38:51.321Z,8.84
2022-12-18T14:41:20.259Z,8.76
2022-12-18T14:43:50.197Z,8.70
2022-12-18T14:46:36.755Z,8.66
2022-12-18T14:49:18.924Z,8.61
2022-12-18T14:51:57.680Z,8.54
2022-12-18T14:54:26.171Z,8.48
2022-12-18T14:57:15.812Z,8.41
2022-12-18T14:59:42.587Z,8.33
2022-12-18T15:02:23.051Z,8.24
2022-12-18T15:05:12.951Z,8.17
2022-12-18T15:07:48.925Z,8.07
2022-12-18T15:10:15.622Z,7.97
2022-12-18T15:12:44.997Z,7.87
2022-12-18T15:15:33.748Z,7.86
2022-12-18T15:18:01.439Z,7.82
2022-12-18T15:20:28.147Z,7.76
2022-12-18T15:22:54.737Z,7.65
2022-12-18T15:25:38.311Z,7.51
2022-12-18T15:28:22.714Z,7.43
2022-12-18T15:31:19.840Z,7.42
2022-12-18T15:34:10.428Z,7.33
2022-12-18T15:36:37.591Z,7.20
2022-12-18T15:39:06.819Z,7.13
2022-12-18T15:41:36.544Z,7.07
2022-12-18T15:44:16.582Z,7.02
2022-12-18T15:46:43.304Z,7.01
2022-12-18T15:49:10.077Z,6.94
2022-12-18T15:51:38.457Z,6.86
2022-12-18T15:54:10.325Z,6.76
2022-12-18T15:56:55.702Z,6.72
2022-12-18T15:59:24.000Z,6.70
2022-12-18T16:01:53.989Z,6.64
2022-12-18T16:04:22.967Z,6.59
2022-12-18T16:07:13.721Z,6.51
2022-12-18T16:09:38.023Z,6.40
2022-12-18T16:12:05.670Z,6.30
2022-12-18T16:14:32.948Z,6.21
2022-12-18T16:17:02.538Z,6.15
2022-12-18T16:19:29.977Z,6.08
2022-12-18T16:21:59.043Z,6.00
2022-12-18T16:24:28.048Z,5.93
2022-12-18T16:26:56.737Z,5.85
2022-12-18T16:29:27.813Z,5.78
2022-12-18T16:31:59.249Z,5.73
2022-12-18T16:34:29.260Z,5.71
2022-12-18T16:37:05.607Z,5.67
2022-12-18T16:39:37.468Z,5.60
2022-12-18T16:42:15.483Z,5.57
2022-12-18T16:44:42.928Z,5.51
2022-12-18T16:47:10.440Z,5.46
2022-12-18T16:49:40.196Z,5.39
2022-12-18T16:52:08.176Z,5.30
2022-12-18T16:54:36.651Z,5.24
2022-12-18T16:57:05.498Z,5.20
2022-12-18T16:59:32.753Z,5.18
2022-12-18T17:01:59.668Z,5.15
2022-12-18T17:04:26.541Z,5.17
2022-12-18T17:06:53.981Z,5.19
2022-12-18T17:09:28.371Z,5.17
2022-12-18T17:11:55.238Z,5.15
2022-12-18T17:14:24.143Z,5.14
2022-12-18T17:17:19.371Z,5.13
2022-12-18T17:19:38.786Z,5.13
2022-12-18T17:22:05.615Z,5.11
2022-12-18T17:24:35.177Z,5.07
2022-12-18T17:27:03.128Z,5.03
2022-12-18T17:29:30.248Z,4.98
2022-12-18T17:31:57.273Z,4.96
2022-12-18T17:34:25.554Z,4.91
2022-12-18T17:36:52.340Z,4.87
2022-12-18T17:39:20.903Z,4.85
2022-12-18T17:41:48.895Z,4.84
2022-12-18T17:44:16.794Z,4.81
2022-12-18T17:46:46.236Z,4.79
2022-12-18T17:49:14.248Z,4.76
2022-12-18T17:51:43.178Z,4.75
2022-12-18T17:54:11.117Z,4.73
2022-12-18T17:56:38.465Z,4.71
2022-12-18T17:59:05.394Z,4.67
2022-12-18T18:01:32.335Z,4.64
2022-12-18T18:04:00.711Z,4.62
2022-12-18T18:06:28.304Z,4.61
2022-12-18T18:08:57.017Z,4.61
2022-12-18T18:11:43.850Z,4.59
2022-12-18T18:14:17.342Z,4.57
2022-12-18T18:16:49.379Z,4.55
2022-12-18T18:19:19.291Z,4.52
2022-12-18T18:21:48.295Z,4.49
2022-12-18T18:24:18.420Z,4.46
2022-12-18T18:26:46.780Z,4.45
2022-12-18T18:29:20.838Z,4.45
2022-12-18T18:31:48.549Z,4.45
2022-12-18T18:34:20.351Z,4.45
2022-12-18T18:36:47.224Z,4.46
2022-12-18T18:39:14.970Z,4.49
2022-12-18T18:41:42.240Z,4.47
2022-12-18T18:44:14.427Z,4.47
2022-12-18T18:46:41.220Z,4.46
2022-12-18T18:49:07.993Z,4.43
2022-12-18T18:51:35.423Z,4.41
2022-12-18T18:54:02.845Z,4.40
2022-12-18T18:59:18.409Z,4.36
2022-12-18T19:01:45.484Z,4.33
2022-12-18T19:04:12.720Z,4.31
2022-12-18T19:06:39.712Z,4.32
2022-12-18T19:09:07.478Z,4.35
2022-12-18T19:11:53.059Z,4.37
2022-12-18T19:14:20.471Z,4.39
2022-12-18T19:16:47.266Z,4.38
2022-12-18T19:19:14.217Z,4.37
2022-12-18T19:21:41.188Z,4.34
2022-12-18T19:24:09.554Z,4.30
2022-12-18T19:26:38.643Z,4.25
2022-12-18T19:29:08.033Z,4.20
2022-12-18T19:31:36.771Z,4.17
2022-12-18T19:34:08.313Z,4.12
2022-12-18T19:36:38.563Z,4.11
2022-12-18T19:39:17.261Z,4.12
2022-12-18T19:41:44.697Z,4.13
2022-12-18T19:44:17.128Z,4.13
2022-12-18T19:46:46.228Z,4.13
2022-12-18T19:49:17.537Z,4.09
2022-12-18T19:51:45.500Z,4.05
2022-12-18T19:54:17.114Z,4.01
2022-12-18T19:56:45.645Z,3.97
2022-12-18T19:59:12.855Z,3.93
2022-12-18T20:01:40.385Z,3.90
2022-12-18T20:04:07.451Z,3.87
2022-12-18T20:06:36.942Z,3.89
2022-12-18T20:09:06.640Z,3.90
2022-12-18T20:11:38.826Z,3.90
2022-12-18T20:14:08.989Z,3.91
2022-12-18T20:16:36.053Z,3.91
2022-12-18T20:19:04.386Z,3.91
2022-12-18T20:21:31.116Z,3.91
2022-12-18T20:23:59.952Z,3.89
2022-12-18T20:26:27.462Z,3.86
2022-12-18T20:28:55.057Z,3.83
2022-12-18T20:31:22.326Z,3.81
2022-12-18T20:33:51.111Z,3.80
2022-12-18T20:36:21.362Z,3.81
2022-12-18T20:38:54.725Z,3.83
2022-12-18T20:41:24.968Z,3.84
2022-12-18T20:43:52.016Z,3.85
2022-12-18T20:46:19.102Z,3.87
2022-12-18T20:48:46.305Z,3.88
2022-12-18T20:51:16.033Z,3.87
2022-12-18T20:53:43.660Z,3.85
2022-12-18T20:56:14.776Z,3.82
2022-12-18T20:58:45.633Z,3.80
2022-12-18T21:01:18.030Z,3.77
2022-12-18T21:03:48.799Z,3.72
2022-12-18T21:06:18.476Z,3.73
2022-12-18T21:08:45.242Z,3.75
2022-12-18T21:11:40.024Z,3.76
2022-12-18T21:14:10.846Z,3.77
2022-12-18T21:16:38.090Z,3.77
2022-12-18T21:19:04.825Z,3.75
2022-12-18T21:21:37.804Z,3.71
2022-12-18T21:24:06.633Z,3.66
2022-12-18T21:26:33.716Z,3.62
2022-12-18T21:29:05.056Z,3.57
2022-12-18T21:31:34.621Z,3.52
2022-12-18T21:34:02.634Z,3.48
2022-12-18T21:36:31.466Z,3.49
2022-12-18T21:38:59.162Z,3.51
2022-12-18T21:41:46.205Z,3.53
2022-12-18T21:44:17.971Z,3.54
2022-12-18T21:46:52.821Z,3.55
2022-12-18T21:49:23.604Z,3.55
2022-12-18T21:51:52.970Z,3.55
2022-12-18T21:54:20.566Z,3.54
2022-12-18T21:56:57.583Z,3.51
2022-12-18T21:59:33.361Z,3.49
2022-12-18T22:02:03.400Z,3.47
2022-12-18T22:04:30.361Z,3.46
2022-12-18T22:06:57.257Z,3.45
2022-12-18T22:09:25.552Z,3.46
2022-12-18T22:11:53.783Z,3.47
2022-12-18T22:14:21.825Z,3.48
2022-12-18T22:16:49.133Z,3.49
2022-12-18T22:19:16.962Z,3.50
2022-12-18T22:21:48.721Z,3.49
2022-12-18T22:24:18.738Z,3.48
2022-12-18T22:26:47.111Z,3.47
2022-12-18T22:29:38.324Z,3.47
2022-12-18T22:32:07.078Z,3.45
2022-12-18T22:34:36.848Z,3.43
2022-12-18T22:37:06.653Z,3.41
2022-12-18T22:39:34.632Z,3.40
2022-12-18T22:42:02.417Z,3.40
2022-12-18T22:44:29.575Z,3.43
2022-12-18T22:47:06.203Z,3.44
2022-12-18T22:49:35.368Z,3.46
2022-12-18T22:52:03.852Z,3.48
2022-12-18T22:54:30.592Z,3.48
2022-12-18T22:56:57.399Z,3.49
2022-12-18T22:59:24.330Z,3.48
2022-12-18T23:01:55.412Z,3.45
2022-12-18T23:04:34.272Z,3.42
2022-12-18T23:07:06.785Z,3.40
2022-12-18T23:09:33.782Z,3.38
2022-12-18T23:12:01.528Z,3.37
2022-12-18T23:14:28.811Z,3.39
2022-12-18T23:16:55.568Z,3.41
2022-12-18T23:19:23.729Z,3.43
2022-12-18T23:21:51.461Z,3.45
2022-12-18T23:24:18.290Z,3.48
2022-12-18T23:26:45.127Z,3.51
2022-12-18T23:29:11.824Z,3.54
2022-12-18T23:31:39.637Z,3.57
2022-12-18T23:34:08.815Z,3.61
2022-12-18T23:36:45.694Z,3.63
2022-12-18T23:39:28.504Z,3.65
2022-12-18T23:42:00.974Z,3.66
2022-12-18T23:44:27.926Z,3.68
2022-12-18T23:46:55.115Z,3.68
2022-12-18T23:49:22.125Z,3.69
2022-12-18T23:51:49.123Z,3.74
2022-12-18T23:54:16.280Z,3.77
2022-12-18T23:56:42.998Z,3.80
2022-12-18T23:59:09.935Z,3.82
